Nearby METAR Reports

 

KPAE - Everett, Washington, USA
Distance from station: NW 15mi, 25km
Updated: 09/22/2018 6:53am
Mostly cloudy
Mostly cloudy
 Wind from SE
Wind: SE 18 mph , 30 km/h, Gust: 35 mph , 56 km/h
Temperature: 57°F , 14°C
Dew Point: 54°F , 12°C
Humidity: 88%
Barometer: 29.84 inHg , 1010.5 hPa
Clouds: Mostly cloudy
Visibility: 10 miles , 16 km
Cloud details: Mostly cloudy 1600 ft
2018/09/22 13:53 KPAE 221353Z 14016G30KT 10SM BKN016 14/12 A2984 RMK AO2 PK WND 15030/1346 SLP105 T01440122
KBFI - Seattle/Boeing, Washington, USA
Distance from station: SW 20mi, 31km
Updated: 09/22/2018 6:53am
Light rain, Overcast
Light rain, Overcast
 Wind from S
Wind: S 8 mph , 13 km/h
Temperature: 57°F , 14°C
Dew Point: 54°F , 12°C
Humidity: 88%
Barometer: 29.87 inHg , 1011.5 hPa
Summary: Light rain
Clouds: Overcast
Visibility: 10 miles , 16 km
Cloud details: Mostly cloudy 2900 ft
Overcast 4200 ft
2018/09/22 13:53 KBFI 221353Z 17007KT 10SM -RA BKN029 OVC042 14/12 A2987 RMK AO2 SLP114 P0002 T01440122
KSEA - Seattle/Metro, Washington, USA
Distance from station: SSW 25mi, 41km
Updated: 09/22/2018 6:53am
Overcast
Overcast
 Wind from S
Wind: S 13 mph , 20 km/h
Temperature: 59°F , 15°C
Dew Point: 54°F , 12°C
Humidity: 82%
Barometer: 29.87 inHg , 1011.5 hPa
Clouds: Overcast
Visibility: 8 miles , 13 km
Cloud details: Few Clouds 1800 ft
Few Clouds 2300 ft
Overcast 2900 ft
2018/09/22 13:53 KSEA 221353Z 19011KT 8SM FEW018 FEW023 OVC029 15/12 A2987 RMK AO2 RAE52 SLP121 P0003 T01500122
 
KAWO - Arlington Muni, Washington, USA
Distance from station: NNW 28mi, 46km
Updated: 09/22/2018 6:56am
Overcast
Overcast
 Wind from SSE
Wind: SSE 18 mph , 30 km/h
Temperature: 61°F , 16°C
Dew Point: 54°F , 12°C
Humidity: 77%
Barometer: 29.83 inHg , 1010.2 hPa
Clouds: Overcast
Visibility: 10 miles , 16 km
Cloud details: Overcast 2400 ft
2018/09/22 13:56 KAWO 221356Z AUTO 15016KT 10SM OVC024 16/12 A2983 RMK AO2 SLP105 P0001 T01560122
KPWT - Bremerton Ntnl, Washington, USA
Distance from station: WSW 38mi, 61km
Updated: 09/22/2018 6:56am
Overcast
Overcast
 Wind from S
Wind: S 12 mph , 19 km/h
Temperature: 55°F , 13°C
Dew Point: 55°F , 13°C
Humidity: 100%
Barometer: 29.86 inHg , 1011.2 hPa
Clouds: Overcast
Visibility: 10 miles , 16 km
Cloud details: Mostly cloudy 500 ft
Overcast 1000 ft
2018/09/22 13:56 KPWT 221356Z AUTO 19010KT 10SM BKN005 OVC010 13/13 A2986 RMK AO2 RAE31 CIG 004V007 SLP129 P0004 T01330128
KTIW - Tacoma, Washington, USA
Distance from station: SW 43mi, 69km
Updated: 09/22/2018 7:02am
Overcast
Overcast
 Wind from S
Wind: S 14 mph , 22 km/h
Temperature: 57°F , 14°C
Dew Point: 54°F , 12°C
Humidity: 88%
Barometer: 29.89 inHg , 1012.2 hPa
Clouds: Overcast
Visibility: 10 miles , 16 km
Cloud details: Mostly cloudy 2800 ft
Overcast 3400 ft
2018/09/22 14:02 KTIW 221402Z AUTO 19012KT 10SM BKN028 OVC034 14/12 A2989 RMK AO2 T01390122
 
KPLU - Puyallup/Thun, Washington, USA
Distance from station: SSW 47mi, 76km
Updated: 09/22/2018 7:15am
Light drizzle, Mostly cloudy
Light drizzle, Mostly cloudy
 Wind from S
Wind: S 7 mph , 11 km/h
Temperature: 57°F , 14°C
Dew Point: 55°F , 13°C
Humidity: 94%
Barometer: 29.90 inHg , 1012.5 hPa
Summary: Light Drizzle
Clouds: Mostly cloudy
Visibility: 2 1/2 miles , 4 km
Cloud details: Few Clouds 400 ft
Partly cloudy 2100 ft
Mostly cloudy 2900 ft
2018/09/22 14:15 KPLU 221415Z AUTO 19006KT 2 1/2SM -DZ FEW004 SCT021 BKN029 14/13 A2990 RMK AO2 VIS 1V5
KSMP - Stampede Pass, Washington, USA
Distance from station: SE 47mi, 76km
Updated: 09/22/2018 7:14am
Overcast
Overcast
 Wind from calm
Wind: Calm
Temperature: 46°F , 8°C
Dew Point: 45°F , 7°C
Humidity: 93%
Barometer: 29.92 inHg , 1013.2 hPa
Clouds: Overcast
Visibility: 10 miles , 16 km
Cloud details: Mostly cloudy 2800 ft
Mostly cloudy 3300 ft
Overcast 4700 ft
2018/09/22 14:14 KSMP 221414Z AUTO 00000KT 10SM BKN028 BKN033 OVC047 08/07 A2992 RMK AO2 T00830072
KNUW - Whidbey Is. Nas, Washington, USA
Distance from station: NW 49mi, 79km
Updated: 09/22/2018 6:56am
Overcast
Overcast
 Wind from SSE
Wind: SSE 20 mph , 31 km/h, Gust: 29 mph , 46 km/h
Temperature: 63°F , 17°C
Dew Point: 54°F , 12°C
Humidity: 73%
Barometer: 29.82 inHg , 1009.8 hPa
Clouds: Overcast
Visibility: 10 miles , 16 km
Cloud details: Mostly cloudy 1800 ft
Mostly cloudy 2500 ft
Mostly cloudy 6500 ft
Overcast 16000 ft
2018/09/22 13:56 KNUW 221356Z 16017G25KT 10SM BKN018 BKN025 BKN065 OVC160 17/12 A2982 RMK AO2 PK WND 15029/1257 SLP098 T01720122 $
 
KBVS - Burlington/Mt V, Washington, USA
Distance from station: NNW 51mi, 83km
Updated: 09/22/2018 7:15am
Overcast
Overcast
 Wind from SSE
Wind: SSE 12 mph , 19 km/h, Gust: 21 mph , 33 km/h
Temperature: 61°F , 16°C
Dew Point: 54°F , 12°C
Humidity: 77%
Barometer: 29.81 inHg , 1009.5 hPa
Clouds: Overcast
Visibility: 10 miles , 16 km
Cloud details: Overcast 2200 ft
2018/09/22 14:15 KBVS 221415Z AUTO 15010G18KT 10SM OVC022 16/12 A2981 RMK A01
KSHN - Shelton, Washington, USA
Distance from station: SW 63mi, 101km
Updated: 09/22/2018 7:14am
Overcast
Overcast
 Wind from S
Wind: S 7 mph , 11 km/h
Temperature: 59°F , 15°C
Dew Point: 55°F , 13°C
Humidity: 88%
Barometer: 29.85 inHg , 1010.8 hPa
Clouds: Overcast
Visibility: 8 miles , 13 km
Cloud details: Mostly cloudy 1600 ft
Overcast 2100 ft
2018/09/22 14:14 KSHN 221414Z AUTO 18006KT 8SM BKN016 OVC021 15/13 A2985 RMK AO2 RAE12 P0003 T01500133
KOLM - Olympia, Washington, USA
Distance from station: SW 68mi, 110km
Updated: 09/22/2018 6:54am
Mostly cloudy
Mostly cloudy
 Wind from S
Wind: S 13 mph , 20 km/h
Temperature: 57°F , 14°C
Dew Point: 55°F , 13°C
Humidity: 94%
Barometer: 29.88 inHg , 1011.9 hPa
Clouds: Mostly cloudy
Visibility: 10 miles , 16 km
Cloud details: Few Clouds 2600 ft
Mostly cloudy 3400 ft
2018/09/22 13:54 KOLM 221354Z AUTO 18011KT 10SM FEW026 BKN034 14/13 A2988 RMK AO2 RAE10 SLP118 P0001 T01390128
 
KCLM - Port Angeles, Washington, USA
Distance from station: WNW 72mi, 115km
Updated: 09/22/2018 7:32am
Light rain, Mist, Overcast
Light rain, Mist, Overcast
 Wind from W
Wind: W 8 mph , 13 km/h
Temperature: 55°F , 13°C
Dew Point: 54°F , 12°C
Humidity: 94%
Barometer: 29.82 inHg , 1009.8 hPa
Summary: Light rain, Mist
Clouds: Overcast
Visibility: 3 miles , 5 km
Cloud details: Few Clouds 3200 ft
Mostly cloudy 3900 ft
Overcast 4900 ft
2018/09/22 14:32 KCLM 221432Z AUTO 26007KT 3SM -RA BR FEW032 BKN039 OVC049 13/12 A2982 RMK AO2 RAB01 P0013 T01330122
CWYJ - Victoria Univ, British Columbia, Canada
Distance from station: NW 75mi, 121km
Updated: 09/22/2018 7:00am

 Wind from WNW
Wind: WNW 3 mph , 6 km/h
Temperature: 55°F , 13°C
Dew Point: 55°F , 13°C
Humidity: 100%
2018/09/22 14:00 CWYJ 221400Z AUTO 30003KT 13/13 RMK AO1 5PAST HR 3004 SLP088 P0002 T01290126 50005
KBLI - Bellingham, Washington, USA
Distance from station: NNW 75mi, 121km
Updated: 09/22/2018 6:53am
Overcast
Overcast
 Wind from SSE
Wind: SSE 13 mph , 20 km/h, Gust: 23 mph , 37 km/h
Temperature: 63°F , 17°C
Dew Point: 54°F , 12°C
Humidity: 73%
Barometer: 29.78 inHg , 1008.5 hPa
Clouds: Overcast
Visibility: 10 miles , 16 km
Cloud details: Overcast 2300 ft
2018/09/22 13:53 KBLI 221353Z 16011G20KT 10SM OVC023 17/12 A2978 RMK AO2 SLP091 T01670117